Time;durP1;ratioP1;P1;durP2;ratioP2;P2;SDS_P1;SDS_P2;PMS_P1;PMS_P2;Temp;Humidity;BMP_temperature;BMP_pressure;BME280_temperature;BME280_humidity;BME280_pressure;Samples;Min_cycle;Max_cycle;Signal;HPM_P1;HPM_P2
2021/09/10 00:00:53;;;;;;;10.37;6.63;;;17.60;99.90;;;18.67;100.00;97930.91;5069074;28;20484;-82
2021/09/10 00:03:22;;;;;;;15.90;7.10;;;17.70;99.90;;;18.64;100.00;97940.13;5067525;28;20535;-82
2021/09/10 00:05:51;;;;;;;13.53;7.40;;;17.70;99.90;;;18.64;100.00;97934.03;5060760;28;20855;-82
2021/09/10 00:08:19;;;;;;;9.53;6.73;;;17.80;99.90;;;18.67;100.00;97934.38;5056467;28;21102;-82
2021/09/10 00:10:48;;;;;;;14.87;7.67;;;17.80;99.90;;;18.72;100.00;97933.63;5064417;28;20956;-82
2021/09/10 00:13:16;;;;;;;9.73;6.57;;;17.80;99.90;;;18.71;100.00;97932.03;5053690;28;20999;-82
2021/09/10 00:15:45;;;;;;;21.10;7.70;;;17.70;99.90;;;18.66;100.00;97926.66;5054693;28;20440;-82
2021/09/10 00:18:15;;;;;;;21.27;7.90;;;17.70;99.90;;;18.65;100.00;97927.69;5063804;28;20477;-82
2021/09/10 00:20:43;;;;;;;15.70;6.70;;;17.70;99.90;;;18.65;100.00;97920.53;5057393;28;20525;-82
2021/09/10 00:23:12;;;;;;;10.90;6.37;;;17.70;99.90;;;18.59;100.00;97918.88;5053271;28;20453;-82
2021/09/10 00:25:41;;;;;;;8.03;6.13;;;17.60;99.90;;;18.64;100.00;97920.78;5057781;28;20904;-82
2021/09/10 00:28:09;;;;;;;12.47;6.87;;;17.60;99.90;;;18.64;100.00;97923.44;5061015;28;21121;-82
2021/09/10 00:30:38;;;;;;;10.10;6.60;;;17.70;99.90;;;18.55;100.00;97918.53;5066113;28;20864;-82
2021/09/10 00:33:06;;;;;;;14.73;6.40;;;17.50;99.90;;;18.54;100.00;97918.75;5070322;28;20494;-82
2021/09/10 00:35:36;;;;;;;7.63;6.00;;;17.50;99.90;;;18.47;100.00;97912.78;5070252;28;20444;-82
2021/09/10 00:38:04;;;;;;;10.03;7.00;;;17.50;99.90;;;18.42;100.00;97921.47;5070786;28;20449;-82
2021/09/10 00:40:33;;;;;;;11.50;8.10;;;17.30;99.90;;;18.41;100.00;97924.34;5070419;28;20513;-82
2021/09/10 00:43:01;;;;;;;11.00;6.80;;;17.30;99.90;;;18.38;100.00;97924.84;5065102;28;20467;-82
2021/09/10 00:45:30;;;;;;;8.50;6.27;;;17.30;99.90;;;18.38;100.00;97924.84;5070222;28;20925;-82
2021/09/10 00:47:59;;;;;;;13.33;6.67;;;17.30;99.90;;;18.40;100.00;97928.03;5065161;28;20986;-82
2021/09/10 00:50:28;;;;;;;10.23;6.40;;;17.30;99.90;;;18.39;100.00;97921.16;5067050;28;20448;-82
2021/09/10 00:52:57;;;;;;;9.97;7.10;;;17.40;99.90;;;18.32;100.00;97925.81;5071002;28;20525;-82
2021/09/10 00:55:27;;;;;;;9.30;7.03;;;17.20;99.90;;;18.23;100.00;97925.38;5059571;28;20529;-82
2021/09/10 00:57:55;;;;;;;9.00;6.87;;;17.10;99.90;;;18.22;100.00;97929.09;5058865;28;20464;-82
2021/09/10 01:00:24;;;;;;;8.70;6.57;;;17.10;99.90;;;18.28;100.00;97928.13;5062540;28;20513;-82
2021/09/10 01:02:53;;;;;;;12.17;6.97;;;17.30;99.90;;;18.27;100.00;97931.81;5055487;28;20808;-82
2021/09/10 01:05:22;;;;;;;10.30;6.00;;;17.30;99.90;;;18.24;100.00;97934.94;5062995;28;20461;-82
2021/09/10 01:07:54;;;;;;;7.13;6.40;;;17.20;99.90;;;18.22;100.00;97933.56;5065358;28;20917;-82
2021/09/10 01:10:25;;;;;;;10.70;6.20;;;17.10;99.90;;;18.23;100.00;97932.50;5069614;28;20453;-82
2021/09/10 01:12:55;;;;;;;21.33;7.23;;;17.20;99.90;;;18.27;100.00;97934.44;5070169;28;20460;-82
2021/09/10 01:15:23;;;;;;;15.50;6.90;;;17.20;99.90;;;18.29;100.00;97935.00;5068676;28;20452;-82
2021/09/10 01:17:52;;;;;;;22.70;7.87;;;17.30;99.90;;;18.26;100.00;97930.19;5068272;28;20444;-82
2021/09/10 01:20:20;;;;;;;14.30;7.00;;;17.20;99.90;;;18.29;100.00;97935.00;5069611;28;20445;-82
2021/09/10 01:22:49;;;;;;;9.13;6.90;;;17.30;99.90;;;18.27;100.00;97939.75;5069431;28;20493;-82
2021/09/10 01:25:21;;;;;;;18.67;8.27;;;17.30;99.90;;;18.21;100.00;97932.75;5069199;28;20510;-82
2021/09/10 01:27:53;;;;;;;18.17;8.30;;;17.10;99.90;;;18.25;100.00;97933.09;5072905;28;20489;-82
2021/09/10 01:30:26;;;;;;;11.93;6.67;;;17.20;99.90;;;18.24;100.00;97940.22;5072864;28;20487;-82
2021/09/10 01:32:56;;;;;;;10.20;6.50;;;17.20;99.90;;;18.23;100.00;97937.81;5072890;28;20444;-82
2021/09/10 01:35:24;;;;;;;8.20;6.70;;;17.20;99.90;;;18.23;100.00;97943.91;5069283;28;20546;-82
2021/09/10 01:37:54;;;;;;;10.73;6.67;;;17.20;99.90;;;18.25;100.00;97941.03;5072302;28;20885;-82
2021/09/10 01:40:25;;;;;;;10.47;8.00;;;17.20;99.90;;;18.26;100.00;97940.78;5073061;28;20502;-82
2021/09/10 01:42:54;;;;;;;8.17;6.83;;;17.30;99.90;;;18.31;100.00;97946.19;5072633;28;20785;-82
2021/09/10 01:45:24;;;;;;;10.03;7.17;;;17.30;99.90;;;18.34;100.00;97943.03;5073449;28;20483;-82
2021/09/10 01:47:52;;;;;;;11.73;8.07;;;17.30;99.90;;;18.38;100.00;97946.03;5070324;28;20472;-82
2021/09/10 01:50:23;;;;;;;9.80;6.20;;;17.40;99.90;;;18.39;100.00;97945.78;5067274;28;20448;-82
2021/09/10 01:52:51;;;;;;;11.43;7.07;;;17.40;99.90;;;18.40;100.00;97944.72;5071958;28;20452;-82
2021/09/10 01:55:20;;;;;;;18.27;7.20;;;17.40;99.90;;;18.39;100.00;97948.44;5071825;28;20503;-82
2021/09/10 01:57:51;;;;;;;9.97;7.60;;;17.40;99.90;;;18.35;100.00;97946.50;5069953;28;20923;-82
2021/09/10 02:00:21;;;;;;;8.80;6.73;;;17.40;99.90;;;18.32;100.00;97947.78;5071222;28;20456;-82
2021/09/10 02:02:50;;;;;;;13.63;7.63;;;17.30;99.90;;;18.19;100.00;97939.34;5076459;28;20483;-82
2021/09/10 02:05:19;;;;;;;12.70;6.40;;;17.20;99.90;;;18.14;100.00;97940.06;5067894;28;20448;-83
2021/09/10 02:07:47;;;;;;;11.67;6.73;;;17.10;99.90;;;18.20;100.00;97933.81;5071783;28;20448;-82
2021/09/10 02:10:18;;;;;;;12.50;6.57;;;17.20;99.90;;;18.25;100.00;97938.38;5067623;28;20495;-82
2021/09/10 02:12:46;;;;;;;13.10;6.77;;;17.30;99.90;;;18.27;100.00;97937.09;5073324;28;20456;-82
2021/09/10 02:15:16;;;;;;;10.10;6.70;;;17.30;99.90;;;18.29;100.00;97932.34;5071836;28;20506;-82
2021/09/10 02:17:44;;;;;;;8.40;7.07;;;17.30;99.90;;;18.32;100.00;97934.56;5063185;28;20987;-82
2021/09/10 02:20:13;;;;;;;12.60;6.17;;;17.40;99.90;;;18.26;100.00;97935.47;5072748;28;20455;-83
2021/09/10 02:22:44;;;;;;;7.90;6.30;;;17.30;99.90;;;18.18;100.00;97941.19;5072158;28;20744;-82
2021/09/10 02:25:12;;;;;;;15.03;7.57;;;17.20;99.90;;;18.11;100.00;97935.22;5063730;28;20506;-82
2021/09/10 02:27:40;;;;;;;12.00;7.00;;;17.10;99.90;;;18.17;100.00;97938.75;5072935;28;20509;-82
2021/09/10 02:30:10;;;;;;;15.67;6.87;;;17.10;99.90;;;18.20;100.00;97939.09;5069033;28;20528;-82
2021/09/10 02:32:40;;;;;;;10.30;6.70;;;17.20;99.90;;;18.22;100.00;97942.31;5061243;28;20494;-82
2021/09/10 02:35:09;;;;;;;7.60;6.47;;;17.20;99.90;;;18.24;100.00;97939.41;5071802;28;20505;-82
2021/09/10 02:37:38;;;;;;;16.13;7.00;;;17.20;99.90;;;18.26;100.00;97943.44;5073386;28;20452;-82
2021/09/10 02:40:09;;;;;;;11.27;6.83;;;17.20;99.90;;;18.26;100.00;97937.31;5070566;28;20476;-82
2021/09/10 02:42:37;;;;;;;17.97;6.67;;;17.30;99.90;;;18.22;100.00;97942.31;5070775;28;20493;-82
2021/09/10 02:45:11;;;;;;;16.73;6.50;;;17.20;99.90;;;18.15;100.00;97936.38;5071828;28;20453;-82
2021/09/10 02:47:41;;;;;;;11.80;7.30;;;17.10;99.90;;;18.16;100.00;97931.84;5073146;28;20517;-82
2021/09/10 02:50:10;;;;;;;18.53;6.90;;;17.10;99.90;;;18.14;100.00;97937.41;5069695;28;20531;-82
2021/09/10 02:52:39;;;;;;;13.40;6.20;;;17.10;99.90;;;18.12;100.00;97931.53;5072773;28;20452;-82
2021/09/10 02:55:09;;;;;;;12.90;6.40;;;17.10;99.90;;;18.13;100.00;97932.34;5072834;28;20532;-82
2021/09/10 02:57:38;;;;;;;20.70;6.70;;;17.10;99.90;;;18.08;100.00;97938.38;5070212;28;20498;-82
2021/09/10 03:00:08;;;;;;;9.00;6.30;;;17.00;99.90;;;18.12;100.00;97934.19;5072133;28;20677;-82
2021/09/10 03:02:36;;;;;;;14.53;6.30;;;17.10;99.90;;;18.12;100.00;97931.53;5070092;28;20938;-82
2021/09/10 03:05:10;;;;;;;10.00;6.87;;;17.20;99.90;;;18.14;100.00;97929.47;5072191;28;20448;-82
2021/09/10 03:07:39;;;;;;;8.43;6.33;;;17.20;99.90;;;18.14;100.00;97921.53;5072254;28;20453;-82
2021/09/10 03:10:10;;;;;;;7.70;6.60;;;17.20;99.90;;;18.13;100.00;97922.56;5080071;28;20495;-82
2021/09/10 03:12:40;;;;;;;13.87;6.97;;;17.10;99.90;;;18.09;100.00;97926.72;5071192;28;20850;-82
2021/09/10 03:15:13;;;;;;;10.60;7.63;;;17.00;99.90;;;18.12;100.00;97925.47;5068500;28;20558;-82
2021/09/10 03:17:43;;;;;;;9.40;6.57;;;17.10;99.90;;;18.14;100.00;97929.47;5062605;28;20510;-82
2021/09/10 03:20:14;;;;;;;11.73;6.80;;;17.20;99.90;;;18.14;100.00;97924.16;5070487;28;20816;-82
2021/09/10 03:22:43;;;;;;;11.60;7.03;;;17.20;99.90;;;18.15;100.00;97920.50;5071791;28;20538;-82
2021/09/10 03:25:12;;;;;;;17.97;6.43;;;17.20;99.90;;;18.16;100.00;97910.69;5071220;28;20448;-82
2021/09/10 03:27:41;;;;;;;18.20;7.60;;;17.20;99.90;;;18.17;100.00;97907.00;5068212;28;20455;-82
2021/09/10 03:30:13;;;;;;;9.37;7.03;;;17.20;99.90;;;18.18;100.00;97904.13;5069719;28;20985;-82
2021/09/10 03:32:43;;;;;;;6.87;6.10;;;17.20;99.90;;;18.17;100.00;97907.81;5069924;28;20447;-82
2021/09/10 03:35:13;;;;;;;13.93;6.60;;;17.20;99.90;;;18.19;100.00;97910.22;5071411;28;20447;-82
2021/09/10 03:37:42;;;;;;;10.20;7.53;;;17.20;99.90;;;18.19;100.00;97900.41;5066810;28;20460;-82
2021/09/10 03:40:12;;;;;;;12.83;7.57;;;17.20;99.90;;;18.18;100.00;97898.84;5061680;28;20457;-83
2021/09/10 03:42:40;;;;;;;14.70;6.80;;;17.20;99.90;;;18.16;100.00;97889.50;5063304;28;20871;-82
2021/09/10 03:45:10;;;;;;;8.40;6.80;;;17.20;99.90;;;18.13;100.00;97897.94;5064966;28;20817;-82
2021/09/10 03:47:39;;;;;;;7.30;6.47;;;17.10;99.90;;;18.12;100.00;97899.75;5064137;28;20484;-82
2021/09/10 03:50:09;;;;;;;10.00;7.07;;;17.10;99.90;;;18.11;100.00;97892.88;5062061;28;20524;-85
2021/09/10 03:52:39;;;;;;;21.17;12.80;;;17.20;99.90;;;18.13;100.00;97890.78;5058807;28;20460;-82
2021/09/10 03:55:08;;;;;;;11.90;8.20;;;17.20;99.90;;;18.13;100.00;97896.09;5057526;28;20481;-82
2021/09/10 03:57:37;;;;;;;9.53;6.27;;;17.20;99.90;;;18.11;100.00;97892.88;5063784;28;20502;-82
2021/09/10 04:00:08;;;;;;;22.77;6.10;;;17.10;99.90;;;18.12;100.00;97899.00;5067982;28;20514;-82
2021/09/10 04:02:37;;;;;;;14.00;6.77;;;17.10;99.90;;;18.13;100.00;97895.28;5066653;28;20444;-82
2021/09/10 04:05:07;;;;;;;15.50;7.37;;;17.10;99.90;;;18.10;100.00;97902.66;5067552;28;20452;-82
2021/09/10 04:07:35;;;;;;;11.20;6.73;;;17.10;99.90;;;18.11;100.00;97898.19;5063946;28;20453;-82
2021/09/10 04:10:07;;;;;;;10.97;7.10;;;17.10;99.90;;;18.10;100.00;97902.66;5061032;28;21157;-84
2021/09/10 04:12:36;;;;;;;21.50;13.10;;;17.10;99.90;;;18.11;100.00;97900.81;5065237;28;20453;-82
2021/09/10 04:15:06;;;;;;;9.53;7.10;;;17.10;99.90;;;18.12;100.00;97893.69;5064046;28;20463;-82
2021/09/10 04:17:34;;;;;;;31.30;7.40;;;17.10;99.90;;;18.08;100.00;97896.78;5056020;28;20449;-82
2021/09/10 04:20:03;;;;;;;10.10;6.20;;;17.10;99.90;;;18.04;100.00;97897.53;5075590;28;20448;-82
2021/09/10 04:22:31;;;;;;;8.80;7.10;;;17.10;99.90;;;18.03;100.00;97901.19;5063401;28;20452;-82
2021/09/10 04:25:00;;;;;;;21.37;14.20;;;17.10;99.90;;;18.00;100.00;97897.19;5061534;28;20945;-83
2021/09/10 04:27:29;;;;;;;35.03;16.77;;;17.00;99.90;;;18.02;100.00;97905.69;5071035;28;20440;-82
2021/09/10 04:29:58;;;;;;;12.00;5.73;;;17.10;99.90;;;18.05;100.00;97896.47;5056964;28;20538;-82
2021/09/10 04:32:27;;;;;;;10.00;6.83;;;17.10;99.90;;;18.05;100.00;97904.41;5065122;28;20505;-82
2021/09/10 04:34:55;;;;;;;10.00;6.33;;;17.10;99.90;;;18.05;100.00;97901.75;5066282;28;20507;-82
2021/09/10 04:37:24;;;;;;;17.00;6.87;;;17.10;99.90;;;18.03;100.00;97895.91;5073365;28;20494;-82
2021/09/10 04:39:52;;;;;;;10.80;6.67;;;17.10;99.90;;;18.03;100.00;97895.91;5068776;28;20876;-81
2021/09/10 04:42:21;;;;;;;9.47;6.40;;;17.10;99.90;;;18.05;100.00;97905.22;5064905;28;20494;-82
2021/09/10 04:44:51;;;;;;;13.83;7.00;;;17.10;99.90;;;18.07;100.00;97907.63;5066410;28;20514;-81
2021/09/10 04:47:19;;;;;;;11.80;6.60;;;17.10;99.90;;;18.07;100.00;97903.16;5071005;28;20472;-81
2021/09/10 04:49:48;;;;;;;24.43;7.30;;;17.10;99.90;;;18.07;100.00;97907.63;5062451;28;20545;-81
2021/09/10 04:52:16;;;;;;;7.47;6.63;;;17.10;99.90;;;18.05;100.00;97904.41;5060051;28;20825;-82
2021/09/10 04:54:45;;;;;;;12.00;6.50;;;17.10;99.90;;;18.05;100.00;97910.50;5065956;28;20559;-81
2021/09/10 04:57:14;;;;;;;16.33;6.40;;;17.10;99.90;;;18.08;100.00;97914.53;5066407;28;20453;-82
2021/09/10 04:59:42;;;;;;;12.33;7.43;;;17.10;99.90;;;18.07;100.00;97915.56;5063704;28;20801;-81
2021/09/10 05:02:12;;;;;;;14.43;7.63;;;17.10;99.90;;;18.05;100.00;97915.00;5064579;28;20484;-82
2021/09/10 05:04:41;;;;;;;18.20;6.90;;;17.10;99.90;;;18.09;100.00;97918.78;5061955;28;20474;-82
2021/09/10 05:07:10;;;;;;;11.20;7.17;;;17.10;99.90;;;18.10;100.00;97913.25;5067023;28;20837;-81
2021/09/10 05:09:38;;;;;;;11.33;6.57;;;17.10;99.90;;;18.09;100.00;97916.13;5068318;28;20514;-81
2021/09/10 05:12:07;;;;;;;9.07;6.70;;;17.10;99.90;;;18.11;100.00;97919.34;5068661;28;20463;-81
2021/09/10 05:14:36;;;;;;;18.30;8.90;;;17.20;99.90;;;18.12;100.00;97918.28;5068409;28;20452;-81
2021/09/10 05:17:06;;;;;;;11.63;6.87;;;17.20;99.90;;;18.14;100.00;97912.78;5060026;28;20445;-81
2021/09/10 05:19:35;;;;;;;12.73;6.80;;;17.20;99.90;;;18.15;100.00;97915.19;5070213;28;20449;-81
2021/09/10 05:22:04;;;;;;;12.33;8.07;;;17.20;99.90;;;18.15;100.00;97915.19;5069514;28;20814;-81
2021/09/10 05:24:33;;;;;;;9.73;6.97;;;17.20;99.90;;;18.18;100.00;97919.19;5070341;28;20517;-82
2021/09/10 05:27:01;;;;;;;10.30;6.87;;;17.20;99.90;;;18.19;100.00;97926.09;5069723;28;20480;-81
2021/09/10 05:29:30;;;;;;;11.80;7.47;;;17.30;99.90;;;18.19;100.00;97931.41;5064433;28;21092;-81
2021/09/10 05:31:58;;;;;;;14.60;7.10;;;17.30;99.90;;;18.17;100.00;97928.97;5067570;28;21074;-81
2021/09/10 05:34:27;;;;;;;8.73;6.77;;;17.30;99.90;;;18.18;100.00;97922.66;5070384;28;20452;-81
2021/09/10 05:36:57;;;;;;;8.57;6.73;;;17.30;99.90;;;18.21;100.00;97931.97;5068589;28;20463;-82
2021/09/10 05:39:25;;;;;;;7.60;6.80;;;17.30;99.90;;;18.22;100.00;97930.94;5069001;28;20979;-81
2021/09/10 05:41:54;;;;;;;8.63;7.23;;;17.40;99.90;;;18.24;100.00;97932.28;5068577;28;20969;-81
2021/09/10 05:44:22;;;;;;;11.80;7.37;;;17.30;99.90;;;18.27;100.00;97934.44;5068911;28;20444;-81
2021/09/10 05:46:51;;;;;;;17.43;7.53;;;17.30;99.90;;;18.30;100.00;97938.47;5065444;28;20494;-82
2021/09/10 05:49:19;;;;;;;9.30;7.00;;;17.40;99.90;;;18.33;100.00;97937.97;5067953;28;20449;-81
2021/09/10 05:51:47;;;;;;;19.33;8.03;;;17.40;99.90;;;18.33;100.00;97944.09;5065427;28;20522;-82
2021/09/10 05:54:17;;;;;;;7.73;6.93;;;17.40;99.90;;;18.31;100.00;97940.06;5070043;28;20444;-82
2021/09/10 05:56:46;;;;;;;15.50;8.40;;;17.30;99.90;;;18.30;100.00;97949.84;5066473;28;20487;-81
2021/09/10 05:59:14;;;;;;;8.63;7.20;;;17.40;99.90;;;18.32;100.00;97953.09;5069493;28;20472;-81
2021/09/10 06:01:43;;;;;;;9.10;7.23;;;17.40;99.90;;;18.30;100.00;97949.84;5069679;28;20979;-81
2021/09/10 06:04:11;;;;;;;10.93;6.93;;;17.30;99.90;;;18.32;100.00;97958.38;5068411;28;20540;-81
2021/09/10 06:06:40;;;;;;;9.10;7.47;;;17.40;99.90;;;18.35;100.00;97949.97;5062332;28;20510;-81
2021/09/10 06:09:09;;;;;;;18.97;6.93;;;17.50;99.90;;;18.39;100.00;97956.38;5069310;28;21006;-82
2021/09/10 06:11:39;;;;;;;12.63;7.30;;;17.50;99.90;;;18.41;100.00;97959.59;5069362;28;20491;-82
2021/09/10 06:14:08;;;;;;;18.13;8.37;;;17.50;99.90;;;18.43;100.00;97957.50;5066965;28;20505;-82
2021/09/10 06:16:36;;;;;;;8.80;6.80;;;17.50;99.90;;;18.46;100.00;97959.69;5064085;28;20522;-81
2021/09/10 06:19:04;;;;;;;9.83;6.50;;;17.50;99.90;;;18.47;100.00;97958.63;5071487;28;20963;-81
2021/09/10 06:21:33;;;;;;;13.40;7.87;;;17.60;99.90;;;18.51;100.00;97964.28;5072586;28;20476;-82
2021/09/10 06:24:01;;;;;;;9.57;7.03;;;17.60;99.90;;;18.54;100.00;97963.78;5070040;28;20544;-81
2021/09/10 06:26:30;;;;;;;9.23;6.83;;;17.60;99.90;;;18.55;100.00;97966.22;5075912;28;20456;-82
2021/09/10 06:29:00;;;;;;;13.20;8.50;;;17.60;99.90;;;18.58;100.00;97967.56;5071109;28;20493;-81
2021/09/10 06:31:28;;;;;;;13.13;7.77;;;17.70;99.90;;;18.58;100.00;97975.53;5067053;28;20535;-81
2021/09/10 06:33:57;;;;;;;9.47;7.37;;;17.70;99.90;;;18.62;100.00;97979.31;5072672;28;20960;-82
2021/09/10 06:36:25;;;;;;;10.90;7.80;;;17.80;99.90;;;18.65;100.00;97972.72;5072153;28;20448;-81
2021/09/10 06:38:54;;;;;;;13.80;8.10;;;17.80;99.90;;;18.68;100.00;97982.81;5071605;28;20449;-82
2021/09/10 06:41:22;;;;;;;14.50;7.23;;;17.80;99.90;;;18.70;100.00;97980.75;5069268;28;20515;-81
2021/09/10 06:43:51;;;;;;;13.10;7.83;;;17.80;99.90;;;18.71;100.00;97979.72;5072692;28;20969;-81
2021/09/10 06:46:20;;;;;;;9.80;7.40;;;17.80;99.90;;;18.74;100.00;97987.19;5072149;28;20467;-82
2021/09/10 06:48:49;;;;;;;12.80;7.10;;;17.80;99.90;;;18.76;100.00;97982.44;5072742;28;20476;-81
2021/09/10 06:51:18;;;;;;;11.03;6.83;;;17.80;99.90;;;18.79;100.00;97984.59;5065923;28;20492;-81
2021/09/10 06:53:46;;;;;;;11.00;8.23;;;17.90;99.90;;;18.80;100.00;97987.03;5070647;28;20479;-82
2021/09/10 06:56:14;;;;;;;10.50;8.20;;;17.90;99.90;;;18.82;100.00;97989.41;5063456;28;20519;-82
2021/09/10 06:58:44;;;;;;;11.43;7.83;;;17.90;99.90;;;18.86;100.00;97982.59;5072462;28;20494;-82
2021/09/10 07:01:13;;;;;;;10.40;8.60;;;18.00;99.90;;;18.89;100.00;97984.75;5072153;28;20460;-81
2021/09/10 07:03:45;;;;;;;12.33;7.83;;;18.00;99.90;;;18.91;100.00;97988.00;5071811;28;20492;-82
2021/09/10 07:06:14;;;;;;;11.73;7.87;;;18.00;99.90;;;18.94;100.00;97990.97;5077277;28;20460;-81
2021/09/10 07:08:43;;;;;;;7.80;7.00;;;18.00;99.90;;;18.97;100.00;97981.72;5071894;28;20896;-81
2021/09/10 07:11:11;;;;;;;10.53;7.23;;;18.10;99.90;;;19.00;100.00;97991.84;5068339;28;20531;-81
2021/09/10 07:13:40;;;;;;;15.23;7.90;;;18.10;99.90;;;19.02;100.00;97990.53;5065988;28;20449;-82
2021/09/10 07:16:08;;;;;;;10.43;6.90;;;18.10;99.90;;;19.05;100.00;97995.34;5068679;28;20473;-81
2021/09/10 07:18:37;;;;;;;13.37;7.80;;;18.20;99.90;;;19.08;100.00;97999.38;5062002;28;20460;-81
2021/09/10 07:21:07;;;;;;;9.50;7.10;;;18.30;99.90;;;19.11;100.00;97993.59;5072144;28;21012;-81
2021/09/10 07:23:35;;;;;;;8.27;6.10;;;18.30;99.90;;;19.12;100.00;97995.22;5070901;28;21094;-81
2021/09/10 07:26:04;;;;;;;7.97;7.00;;;18.30;99.90;;;19.15;100.00;98000.03;5071403;28;20447;-81
2021/09/10 07:28:33;;;;;;;14.00;7.10;;;18.40;99.90;;;19.18;100.00;97988.13;5066188;28;20444;-81
2021/09/10 07:31:04;;;;;;;19.43;6.77;;;18.40;99.90;;;19.18;100.00;97983.63;5064234;28;20440;-81
2021/09/10 07:33:36;;;;;;;7.87;6.90;;;18.40;99.90;;;19.21;100.00;97988.44;5070275;28;20472;-81
2021/09/10 07:36:06;;;;;;;8.70;7.40;;;18.40;99.90;;;19.22;100.00;97987.41;5071082;28;20444;-81
2021/09/10 07:38:37;;;;;;;9.87;6.17;;;18.40;99.90;;;19.22;100.00;97989.25;5070346;28;20573;-81
2021/09/10 07:41:06;;;;;;;10.63;7.13;;;18.40;99.90;;;19.27;100.00;97987.47;5070030;28;20959;-81
2021/09/10 07:43:34;;;;;;;12.53;6.93;;;18.50;99.90;;;19.31;100.00;97988.56;5074644;28;20479;-81
2021/09/10 07:46:04;;;;;;;9.00;6.90;;;18.50;99.90;;;19.38;100.00;97989.22;5071685;28;20558;-81
2021/09/10 07:48:33;;;;;;;8.17;6.00;;;18.60;99.90;;;19.41;100.00;97991.41;5064620;28;20498;-81
2021/09/10 07:51:01;;;;;;;9.27;7.70;;;18.60;99.90;;;19.41;100.00;97988.75;5067363;28;20452;-81
2021/09/10 07:53:31;;;;;;;12.40;7.20;;;18.60;99.90;;;19.46;100.00;97996.78;5076725;28;20526;-81
2021/09/10 07:56:01;;;;;;;9.93;6.50;;;18.70;99.90;;;19.51;100.00;97999.50;5066748;28;20518;-81
2021/09/10 07:58:29;;;;;;;9.40;7.10;;;18.70;99.90;;;19.55;100.00;97997.16;5071346;28;20440;-82
2021/09/10 08:00:57;;;;;;;9.60;6.87;;;18.70;99.90;;;19.59;100.00;97996.44;5071101;28;20480;-81
2021/09/10 08:03:27;;;;;;;15.20;6.67;;;18.80;99.90;;;19.67;100.00;97992.53;5070094;28;20452;-82
2021/09/10 08:05:57;;;;;;;8.20;6.27;;;18.90;99.90;;;19.71;100.00;98003.47;5066601;28;20469;-81
2021/09/10 08:08:25;;;;;;;9.23;7.00;;;18.90;99.90;;;19.74;100.00;97998.47;5062653;28;20449;-81
2021/09/10 08:10:55;;;;;;;10.97;6.90;;;19.00;99.90;;;19.77;100.00;97994.53;5070257;28;20456;-81
2021/09/10 08:13:24;;;;;;;10.23;6.13;;;18.90;99.90;;;19.79;100.00;97995.88;5071705;28;20492;-81
2021/09/10 08:15:52;;;;;;;9.27;7.00;;;19.00;99.90;;;19.75;100.00;98005.38;5067596;28;20460;-81
2021/09/10 08:18:21;;;;;;;9.50;7.27;;;18.90;99.90;;;19.82;100.00;97997.25;5064685;28;20922;-82
2021/09/10 08:20:50;;;;;;;7.70;5.67;;;19.00;99.90;;;19.87;100.00;97991.97;5066461;28;20452;-81
2021/09/10 08:23:18;;;;;;;7.93;5.53;;;19.00;99.90;;;19.87;100.00;98000.75;5064577;28;20805;-82
2021/09/10 08:25:47;;;;;;;9.73;5.53;;;19.00;99.90;;;19.83;100.00;97998.84;5068177;28;20509;-82
2021/09/10 08:28:17;;;;;;;12.13;6.27;;;19.00;99.90;;;19.93;100.00;98004.25;5069082;28;20949;-82
2021/09/10 08:30:48;;;;;;;22.33;5.87;;;19.10;99.90;;;19.98;100.00;97999.03;5064117;28;20605;-82
2021/09/10 08:33:18;;;;;;;8.10;6.50;;;19.20;99.90;;;20.10;100.00;97997.03;5069615;28;20497;-82
2021/09/10 08:35:47;;;;;;;10.30;6.60;;;19.30;99.90;;;20.12;100.00;97997.59;5079959;28;20460;-82
2021/09/10 08:38:15;;;;;;;9.20;6.27;;;19.30;99.90;;;20.20;100.00;98007.75;5069500;28;20452;-82
2021/09/10 08:40:47;;;;;;;8.73;6.30;;;19.40;99.90;;;20.31;100.00;98006.03;5071082;28;20453;-82
2021/09/10 08:43:19;;;;;;;6.50;5.50;;;19.50;99.90;;;20.37;100.00;98013.03;5070866;28;20475;-82
2021/09/10 08:45:48;;;;;;;6.23;5.63;;;19.60;99.90;;;20.44;100.00;98010.97;5070819;28;20519;-82
2021/09/10 08:48:19;;;;;;;5.60;4.70;;;19.80;99.90;;;20.43;100.00;98006.69;5070789;28;20448;-82
2021/09/10 08:50:48;;;;;;;13.70;5.20;;;19.70;99.90;;;20.51;100.00;98007.03;5065961;28;20449;-82
2021/09/10 08:53:16;;;;;;;6.47;5.33;;;19.80;99.90;;;20.58;100.00;98020.91;5070543;28;21060;-82
2021/09/10 08:55:45;;;;;;;6.13;4.70;;;19.80;99.90;;;20.66;100.00;98010.88;5063543;28;20473;-82
2021/09/10 08:58:13;;;;;;;6.90;5.10;;;19.90;99.90;;;20.73;100.00;98011.50;5057378;28;20518;-82
2021/09/10 09:00:43;;;;;;;6.13;5.17;;;20.00;99.90;;;20.77;100.00;98007.28;5067526;28;20444;-82
2021/09/10 09:03:13;;;;;;;8.50;4.90;;;20.10;99.90;;;20.80;100.00;98004.91;5069408;28;20463;-82
2021/09/10 09:05:42;;;;;;;8.63;4.30;;;20.10;99.90;;;20.86;100.00;98005.78;5070231;28;20444;-82
2021/09/10 09:08:14;;;;;;;9.40;5.60;;;20.20;99.90;;;20.94;100.00;98007.94;5070067;28;20452;-82
2021/09/10 09:10:59;;;;;;;9.73;4.60;;;20.30;99.90;;;20.99;100.00;98006.16;5069923;28;20507;-82
2021/09/10 09:13:31;;;;;;;7.07;4.70;;;20.30;99.90;;;21.03;100.00;97998.47;5064259;28;20592;-83
2021/09/10 09:16:19;;;;;;;8.07;5.17;;;20.40;99.90;;;21.08;100.00;98006.47;5064017;28;20515;-82
2021/09/10 09:18:50;;;;;;;7.30;4.90;;;20.40;99.90;;;21.13;100.00;98003.88;5066378;28;20906;-82
2021/09/10 09:21:25;;;;;;;10.87;5.20;;;20.40;99.90;;;21.17;100.00;97999.66;5069515;28;20501;-82
2021/09/10 09:23:56;;;;;;;7.00;4.53;;;20.40;99.90;;;21.23;100.00;98005.81;5069013;28;20861;-82
2021/09/10 09:26:28;;;;;;;8.37;5.17;;;20.50;99.90;;;21.28;100.00;98019.94;5067176;28;20444;-82
2021/09/10 09:29:09;;;;;;;12.33;4.60;;;20.50;99.90;;;21.29;100.00;98016.22;5064045;28;20456;-82
2021/09/10 09:31:40;;;;;;;7.20;4.87;;;20.50;99.90;;;21.28;100.00;98009.28;5069189;28;20493;-82
2021/09/10 09:34:10;;;;;;;8.47;5.17;;;20.50;99.90;;;21.31;100.00;98011.44;5069279;28;20496;-82
2021/09/10 09:36:53;;;;;;;7.30;4.70;;;20.50;99.90;;;21.39;100.00;98016.28;5068449;28;21031;-82
2021/09/10 09:39:22;;;;;;;6.83;4.50;;;20.60;99.90;;;21.39;100.00;98016.28;5069839;28;20448;-82
2021/09/10 09:41:50;;;;;;;6.90;4.57;;;20.60;99.90;;;21.46;100.00;98011.53;5068247;28;20494;-82
2021/09/10 09:44:19;;;;;;;13.10;4.30;;;20.80;99.90;;;21.54;100.00;98008.41;5068860;28;20502;-82
2021/09/10 09:47:02;;;;;;;6.43;4.60;;;20.90;99.90;;;21.58;100.00;98008.69;5066806;28;20492;-82
2021/09/10 09:49:32;;;;;;;6.70;4.47;;;20.90;99.90;;;21.64;100.00;98004.16;5066081;28;20455;-82
2021/09/10 09:52:02;;;;;;;11.33;4.90;;;20.90;99.90;;;21.66;100.00;98010.81;5066273;28;20448;-82
2021/09/10 09:54:31;;;;;;;10.60;4.77;;;21.00;99.90;;;21.55;100.00;98012.63;5073662;28;20527;-82
2021/09/10 09:57:00;;;;;;;7.73;5.90;;;20.80;99.90;;;21.49;100.00;98010.22;5069372;28;21108;-82
2021/09/10 09:59:33;;;;;;;8.20;5.47;;;20.70;99.90;;;21.56;100.00;98000.13;5070688;28;20468;-82
2021/09/10 10:02:03;;;;;;;5.50;4.43;;;20.80;99.90;;;21.58;100.00;98003.34;5071467;28;20542;-82
2021/09/10 10:04:32;;;;;;;10.40;4.90;;;20.80;99.90;;;21.59;100.00;98011.06;5066113;28;20452;-82
2021/09/10 10:07:02;;;;;;;5.70;4.23;;;20.80;99.90;;;21.61;100.00;98013.47;5073984;28;20447;-82
2021/09/10 10:09:33;;;;;;;6.43;3.70;;;20.80;99.90;;;21.56;100.00;98016.91;5073508;28;20855;-82
2021/09/10 10:12:03;;;;;;;6.57;4.20;;;20.70;99.90;;;21.68;100.00;98014.06;5073056;28;20456;-82
2021/09/10 10:14:34;;;;;;;9.30;4.10;;;20.90;99.90;;;21.67;100.00;98016.97;5065354;28;20500;-82
2021/09/10 10:17:06;;;;;;;7.07;5.30;;;20.90;99.90;;;21.69;100.00;98014.84;5065593;28;20448;-82